Time;durP1;ratioP1;P1;durP2;ratioP2;P2;SDS_P1;SDS_P2;PMS_P1;PMS_P2;Temp;Humidity;BMP_temperature;BMP_pressure;BME280_temperature;BME280_humidity;BME280_pressure;Samples;Min_cycle;Max_cycle;Signal;HPM_P1;HPM_P2
2021/01/07 00:03:07;;;;;;;;;;;4.20;99.90;;;;;;10408589;28;19931;-66
2021/01/07 00:08:08;;;;;;;;;;;4.20;99.90;;;;;;10408264;28;20171;-66
2021/01/07 00:13:09;;;;;;;;;;;4.20;99.90;;;;;;10407768;28;19929;-66
2021/01/07 00:18:11;;;;;;;;;;;4.30;99.90;;;;;;10407192;28;19933;-66
2021/01/07 00:23:13;;;;;;;;;;;4.20;99.90;;;;;;10406136;28;19980;-66
2021/01/07 00:28:14;;;;;;;;;;;4.30;99.90;;;;;;10407700;28;20051;-66
2021/01/07 00:33:16;;;;;;;;;;;4.30;99.90;;;;;;10407473;28;20345;-66
2021/01/07 00:38:18;;;;;;;;;;;4.30;99.90;;;;;;10406581;28;20456;-66
2021/01/07 00:43:19;;;;;;;;;;;4.40;99.90;;;;;;10421930;28;20351;-66
2021/01/07 00:48:20;;;;;;;;;;;4.40;99.90;;;;;;10406826;28;20367;-66
2021/01/07 00:53:22;;;;;;;;;;;4.30;99.90;;;;;;10407134;28;20018;-66
2021/01/07 00:58:23;;;;;;;;;;;4.20;99.90;;;;;;10407043;28;19982;-66
2021/01/07 01:03:24;;;;;;;;;;;4.20;99.90;;;;;;10406237;28;20016;-65
2021/01/07 01:08:26;;;;;;;;;;;4.10;99.90;;;;;;10407129;28;19964;-66
2021/01/07 01:13:27;;;;;;;;;;;4.00;99.90;;;;;;10407353;28;19960;-66
2021/01/07 01:18:28;;;;;;;;;;;4.10;99.90;;;;;;10405340;28;19972;-65
2021/01/07 01:23:30;;;;;;;;;;;4.00;99.90;;;;;;10406100;28;20618;-65
2021/01/07 01:28:31;;;;;;;;;;;4.00;99.90;;;;;;10405189;28;20433;-65
2021/01/07 01:33:33;;;;;;;;;;;4.00;99.90;;;;;;10405669;28;20019;-65
2021/01/07 01:38:34;;;;;;;;;;;3.80;99.90;;;;;;10405208;28;20368;-65
2021/01/07 01:43:36;;;;;;;;;;;3.80;99.90;;;;;;10405170;28;20016;-66
2021/01/07 01:48:39;;;;;;;;;;;3.70;99.90;;;;;;10405276;28;19972;-66
2021/01/07 01:53:40;;;;;;;;;;;3.80;99.90;;;;;;10405130;28;19971;-66
2021/01/07 01:58:41;;;;;;;;;;;3.80;99.90;;;;;;10404195;28;19976;-65
2021/01/07 02:03:43;;;;;;;;;;;3.80;99.90;;;;;;10403951;28;20020;-66
2021/01/07 02:08:45;;;;;;;;;;;3.80;99.90;;;;;;10405092;28;19925;-66
2021/01/07 02:13:47;;;;;;;;;;;3.90;99.90;;;;;;10404048;28;20012;-66
2021/01/07 02:18:52;;;;;;;;;;;3.80;99.90;;;;;;10403964;28;20450;-66
2021/01/07 02:23:54;;;;;;;;;;;3.80;99.90;;;;;;10404176;28;20408;-66
2021/01/07 02:28:55;;;;;;;;;;;3.70;99.90;;;;;;10403521;28;20019;-66
2021/01/07 02:33:57;;;;;;;;;;;3.70;99.90;;;;;;10402130;28;19925;-66
2021/01/07 02:38:58;;;;;;;;;;;3.70;99.90;;;;;;10402624;28;20421;-66
2021/01/07 02:43:59;;;;;;;;;;;3.70;99.90;;;;;;10403549;28;20020;-66
2021/01/07 02:49:01;;;;;;;;;;;3.70;99.90;;;;;;10401906;28;20016;-66
2021/01/07 02:54:02;;;;;;;;;;;3.70;99.90;;;;;;10403383;28;20008;-66
2021/01/07 02:59:04;;;;;;;;;;;3.80;99.90;;;;;;10403245;28;20032;-66
2021/01/07 03:04:05;;;;;;;;;;;3.80;99.90;;;;;;10409570;28;19980;-66
2021/01/07 03:09:06;;;;;;;;;;;3.70;99.90;;;;;;10410077;28;19929;-65
2021/01/07 03:14:07;;;;;;;;;;;3.80;99.90;;;;;;10411226;28;19979;-66
2021/01/07 03:19:09;;;;;;;;;;;3.80;99.90;;;;;;10411125;28;19979;-66
2021/01/07 03:24:10;;;;;;;;;;;3.70;99.90;;;;;;10411026;28;19975;-65
2021/01/07 03:29:11;;;;;;;;;;;3.60;99.90;;;;;;10411378;28;20200;-65
2021/01/07 03:34:13;;;;;;;;;;;3.60;99.90;;;;;;10410443;28;19929;-66
2021/01/07 03:39:14;;;;;;;;;;;3.60;99.90;;;;;;10410912;28;20012;-66
2021/01/07 03:44:16;;;;;;;;;;;3.60;99.90;;;;;;10410244;28;20008;-66
2021/01/07 03:49:17;;;;;;;;;;;3.70;99.90;;;;;;10411302;28;19964;-65
2021/01/07 03:54:18;;;;;;;;;;;3.60;99.90;;;;;;10421831;28;20419;-65
2021/01/07 03:59:20;;;;;;;;;;;3.70;99.90;;;;;;10412738;28;20421;-65
2021/01/07 04:04:21;;;;;;;;;;;3.70;99.90;;;;;;10391718;28;19937;-66
2021/01/07 04:09:22;;;;;;;;;;;3.60;99.90;;;;;;10409433;28;19987;-66
2021/01/07 04:14:24;;;;;;;;;;;3.60;99.90;;;;;;10409300;28;19979;-66
2021/01/07 04:19:27;;;;;;;;;;;3.60;99.90;;;;;;10410099;28;20324;-66
2021/01/07 04:24:29;;;;;;;;;;;3.50;99.90;;;;;;10410051;28;20018;-65
2021/01/07 04:29:30;;;;;;;;;;;3.40;99.90;;;;;;10410045;28;19925;-66
2021/01/07 04:34:31;;;;;;;;;;;3.40;99.90;;;;;;10409914;28;20377;-65
2021/01/07 04:39:32;;;;;;;;;;;3.50;99.90;;;;;;10409121;28;20404;-66
2021/01/07 04:44:35;;;;;;;;;;;3.50;99.90;;;;;;10409834;28;19929;-66
2021/01/07 04:49:37;;;;;;;;;;;3.50;99.90;;;;;;10409062;28;19957;-66
2021/01/07 04:54:38;;;;;;;;;;;3.50;99.90;;;;;;10409096;28;19925;-65
2021/01/07 04:59:39;;;;;;;;;;;3.60;99.90;;;;;;10408274;28;19925;-65
2021/01/07 05:04:51;;;;;;;;;;;3.60;99.90;;;;;;10407247;28;20216;-66
2021/01/07 05:10:12;;;;;;;;;;;3.50;99.90;;;;;;10397192;28;20304;-66
2021/01/07 05:15:14;;;;;;;;;;;3.60;99.90;;;;;;10406367;28;20016;-66
2021/01/07 05:20:16;;;;;;;;;;;3.60;99.90;;;;;;10407146;28;19925;-66
2021/01/07 05:25:17;;;;;;;;;;;3.50;99.90;;;;;;10405685;28;19965;-65
2021/01/07 05:30:18;;;;;;;;;;;3.40;99.90;;;;;;10420111;28;20020;-66
2021/01/07 05:35:20;;;;;;;;;;;3.40;99.90;;;;;;10396100;28;20013;-66
2021/01/07 05:40:22;;;;;;;;;;;3.40;99.90;;;;;;10399539;28;20024;-66
2021/01/07 05:45:23;;;;;;;;;;;3.40;99.90;;;;;;10404704;28;19925;-65
2021/01/07 05:50:25;;;;;;;;;;;3.40;99.90;;;;;;10404171;28;19929;-66
2021/01/07 05:55:27;;;;;;;;;;;3.40;99.90;;;;;;10405314;28;19964;-65
2021/01/07 06:00:30;;;;;;;;;;;3.40;99.90;;;;;;10405787;28;20337;-66
2021/01/07 06:05:32;;;;;;;;;;;3.40;99.90;;;;;;10405804;28;20324;-66
2021/01/07 06:10:33;;;;;;;;;;;3.50;99.90;;;;;;10405297;28;19925;-66
2021/01/07 06:15:35;;;;;;;;;;;3.60;99.90;;;;;;10405138;28;19925;-65
2021/01/07 06:20:36;;;;;;;;;;;3.60;99.90;;;;;;10403858;28;20419;-66
2021/01/07 06:25:37;;;;;;;;;;;3.50;99.90;;;;;;10404643;28;20012;-66
2021/01/07 06:30:40;;;;;;;;;;;3.40;99.90;;;;;;10404861;28;19964;-65
2021/01/07 06:35:42;;;;;;;;;;;3.50;99.90;;;;;;10404186;28;20020;-66
2021/01/07 06:40:44;;;;;;;;;;;3.50;99.90;;;;;;10404609;28;20385;-66
2021/01/07 06:45:48;;;;;;;;;;;3.60;99.90;;;;;;10403749;28;19951;-66
2021/01/07 06:50:53;;;;;;;;;;;3.60;99.90;;;;;;10403524;28;19996;-65
2021/01/07 06:56:10;;;;;;;;;;;3.60;99.90;;;;;;10403962;28;19933;-66
2021/01/07 07:01:16;;;;;;;;;;;3.60;99.90;;;;;;10399851;28;19976;-66
2021/01/07 07:06:18;;;;;;;;;;;3.60;99.90;;;;;;10401057;28;20015;-66
2021/01/07 07:11:28;;;;;;;;;;;3.60;99.90;;;;;;10402792;28;19960;-65
2021/01/07 07:16:34;;;;;;;;;;;3.60;99.90;;;;;;10403854;28;20449;-67
2021/01/07 07:21:36;;;;;;;;;;;3.60;99.90;;;;;;10404511;28;20460;-67
2021/01/07 07:26:40;;;;;;;;;;;3.60;99.90;;;;;;10406972;28;20016;-68
2021/01/07 07:31:43;;;;;;;;;;;3.60;99.90;;;;;;10426793;28;19925;-68
2021/01/07 07:36:45;;;;;;;;;;;3.60;99.90;;;;;;10411204;28;19925;-69
2021/01/07 07:41:47;;;;;;;;;;;3.60;99.90;;;;;;10411379;28;19925;-68
2021/01/07 07:46:52;;;;;;;;;;;3.70;99.90;;;;;;10409283;28;19926;-68
2021/01/07 07:51:53;;;;;;;;;;;3.70;99.90;;;;;;10403939;28;20443;-68
2021/01/07 07:56:59;;;;;;;;;;;3.70;99.90;;;;;;10410544;28;19976;-68
2021/01/07 08:02:14;;;;;;;;;;;3.60;99.90;;;;;;10408850;28;19932;-68
2021/01/07 08:07:16;;;;;;;;;;;3.70;99.90;;;;;;10410111;28;20743;-68
2021/01/07 08:12:17;;;;;;;;;;;3.70;99.90;;;;;;10408967;28;20019;-68
2021/01/07 08:17:23;;;;;;;;;;;3.80;99.90;;;;;;10408710;28;19979;-68
2021/01/07 08:22:28;;;;;;;;;;;3.90;99.90;;;;;;10408898;28;19979;-68
2021/01/07 08:27:30;;;;;;;;;;;3.90;99.90;;;;;;10408228;28;19932;-69
2021/01/07 08:32:38;;;;;;;;;;;3.90;99.90;;;;;;10409112;28;19988;-68
2021/01/07 08:37:42;;;;;;;;;;;3.90;99.90;;;;;;10409573;28;20377;-68
2021/01/07 08:42:45;;;;;;;;;;;4.00;99.90;;;;;;10408774;28;19936;-68
2021/01/07 08:47:47;;;;;;;;;;;4.00;99.90;;;;;;10409163;28;19929;-69
2021/01/07 08:52:49;;;;;;;;;;;4.00;99.90;;;;;;10409990;28;19929;-68
2021/01/07 08:58:00;;;;;;;;;;;4.00;99.90;;;;;;10409025;28;20012;-68
2021/01/07 09:03:02;;;;;;;;;;;4.00;99.90;;;;;;10408713;28;20465;-68
2021/01/07 09:08:06;;;;;;;;;;;4.00;99.90;;;;;;10408544;28;20014;-68
2021/01/07 09:13:14;;;;;;;;;;;4.10;99.90;;;;;;10408768;28;19968;-68
2021/01/07 09:18:18;;;;;;;;;;;4.00;99.90;;;;;;10408118;28;20008;-68
2021/01/07 09:23:20;;;;;;;;;;;4.00;99.90;;;;;;10408126;28;20281;-68
2021/01/07 09:28:21;;;;;;;;;;;4.00;99.90;;;;;;10408001;28;20329;-68
2021/01/07 09:33:24;;;;;;;;;;;4.00;99.90;;;;;;10407768;28;20390;-68
2021/01/07 09:38:27;;;;;;;;;;;4.10;99.90;;;;;;10408128;28;19974;-68
2021/01/07 09:43:33;;;;;;;;;;;4.10;99.90;;;;;;10407312;28;20012;-68
2021/01/07 09:48:34;;;;;;;;;;;4.10;99.90;;;;;;10405097;28;20357;-68
2021/01/07 09:53:35;;;;;;;;;;;4.20;99.90;;;;;;10406838;28;20350;-68
2021/01/07 09:58:36;;;;;;;;;;;4.20;99.90;;;;;;10406175;28;20420;-68
2021/01/07 10:03:38;;;;;;;;;;;4.30;99.90;;;;;;10405696;28;19969;-68
2021/01/07 10:08:39;;;;;;;;;;;4.50;99.90;;;;;;10406379;28;20441;-68
2021/01/07 10:13:41;;;;;;;;;;;4.70;99.90;;;;;;10406359;28;20274;-68
2021/01/07 10:18:43;;;;;;;;;;;4.70;99.90;;;;;;10405830;28;19979;-68
2021/01/07 10:23:46;;;;;;;;;;;4.60;99.90;;;;;;10406100;28;20349;-68
2021/01/07 10:28:48;;;;;;;;;;;4.70;99.90;;;;;;10405162;28;20035;-68
2021/01/07 10:33:50;;;;;;;;;;;4.80;99.90;;;;;;10421225;28;20399;-68
2021/01/07 10:38:52;;;;;;;;;;;4.90;99.90;;;;;;10405724;28;19933;-68
2021/01/07 10:43:56;;;;;;;;;;;5.00;99.90;;;;;;10405621;28;19975;-68
2021/01/07 10:48:57;;;;;;;;;;;4.90;99.90;;;;;;10404044;28;20016;-68
2021/01/07 10:54:08;;;;;;;;;;;4.90;99.90;;;;;;10405062;28;20018;-68
2021/01/07 10:59:18;;;;;;;;;;;5.00;99.90;;;;;;10404976;28;20381;-69
2021/01/07 11:04:38;;;;;;;;;;;4.90;99.90;;;;;;10413083;28;20300;-68
2021/01/07 11:09:40;;;;;;;;;;;5.00;99.90;;;;;;10412109;28;20015;-68
2021/01/07 11:14:49;;;;;;;;;;;5.10;99.90;;;;;;10412793;28;19925;-68
2021/01/07 11:19:52;;;;;;;;;;;5.20;99.90;;;;;;10412545;28;19924;-68
2021/01/07 11:24:54;;;;;;;;;;;5.10;99.90;;;;;;10412748;28;20098;-68
2021/01/07 11:29:55;;;;;;;;;;;5.20;99.90;;;;;;10412492;28;20015;-68
2021/01/07 11:35:00;;;;;;;;;;;5.20;99.90;;;;;;10412960;28;19956;-68
2021/01/07 11:40:08;;;;;;;;;;;5.30;99.90;;;;;;10411888;28;20011;-68
2021/01/07 11:45:17;;;;;;;;;;;5.20;99.90;;;;;;10412064;28;20361;-68
2021/01/07 11:50:19;;;;;;;;;;;5.20;99.90;;;;;;10410754;28;19941;-68
2021/01/07 11:55:21;;;;;;;;;;;5.20;99.90;;;;;;10411378;28;19948;-68
2021/01/07 12:00:22;;;;;;;;;;;5.20;99.90;;;;;;10411088;28;20270;-68
2021/01/07 12:05:24;;;;;;;;;;;5.10;99.90;;;;;;10411209;28;20032;-68
2021/01/07 12:10:27;;;;;;;;;;;4.80;99.90;;;;;;10410263;28;19929;-68
2021/01/07 12:15:29;;;;;;;;;;;4.50;99.90;;;;;;10410489;28;20428;-68
2021/01/07 12:20:34;;;;;;;;;;;4.70;99.90;;;;;;10410922;28;20027;-68
2021/01/07 12:25:38;;;;;;;;;;;4.60;99.90;;;;;;10410406;28;20039;-68
2021/01/07 12:30:43;;;;;;;;;;;4.30;99.90;;;;;;10410166;28;19933;-68
2021/01/07 12:35:57;;;;;;;;;;;4.30;99.90;;;;;;10409914;28;20350;-68
2021/01/07 12:41:01;;;;;;;;;;;4.30;99.90;;;;;;10408196;28;20032;-68
2021/01/07 12:46:03;;;;;;;;;;;4.50;99.90;;;;;;10409131;28;20289;-68
2021/01/07 12:51:04;;;;;;;;;;;4.50;99.90;;;;;;10407781;28;19925;-68
2021/01/07 12:56:07;;;;;;;;;;;4.60;99.90;;;;;;10407663;28;19925;-68
2021/01/07 13:01:21;;;;;;;;;;;4.70;99.90;;;;;;10408369;28;19932;-68
2021/01/07 13:06:26;;;;;;;;;;;4.80;99.90;;;;;;10408206;28;19926;-69
2021/01/07 13:11:27;;;;;;;;;;;4.70;99.90;;;;;;10407872;28;20373;-68
2021/01/07 13:16:29;;;;;;;;;;;4.70;99.90;;;;;;10407893;28;20401;-68
2021/01/07 13:21:31;;;;;;;;;;;4.70;99.90;;;;;;10407985;28;19988;-68
2021/01/07 13:26:32;;;;;;;;;;;4.80;99.90;;;;;;10407380;28;19925;-68
2021/01/07 13:31:33;;;;;;;;;;;4.90;99.90;;;;;;10407138;28;19925;-68
2021/01/07 13:36:34;;;;;;;;;;;5.00;99.90;;;;;;10407686;28;20028;-68
2021/01/07 13:41:37;;;;;;;;;;;4.90;99.90;;;;;;10407153;28;19961;-68
2021/01/07 13:46:42;;;;;;;;;;;5.00;99.90;;;;;;10406693;28;19968;-68
2021/01/07 13:51:49;;;;;;;;;;;4.90;99.90;;;;;;10406294;28;19925;-68
2021/01/07 13:56:53;;;;;;;;;;;5.20;99.90;;;;;;10405106;28;19931;-68
2021/01/07 14:01:54;;;;;;;;;;;5.30;99.90;;;;;;10405907;28;20015;-68
2021/01/07 14:06:56;;;;;;;;;;;5.10;99.90;;;;;;10405327;28;20293;-68
2021/01/07 14:11:59;;;;;;;;;;;5.10;99.90;;;;;;10438620;28;19925;-69
2021/01/07 14:17:01;;;;;;;;;;;5.00;99.90;;;;;;10399825;28;20372;-69
2021/01/07 14:22:03;;;;;;;;;;;4.80;99.90;;;;;;10434120;28;20015;-69
2021/01/07 14:27:32;;;;;;;;;;;4.80;99.90;;;;;;10404171;28;20405;-69
2021/01/07 14:32:34;;;;;;;;;;;4.90;99.90;;;;;;10398504;28;20131;-69
2021/01/07 14:37:40;;;;;;;;;;;4.80;99.90;;;;;;10402845;28;19979;-69
2021/01/07 14:42:44;;;;;;;;;;;4.80;99.90;;;;;;10401151;28;19929;-69
2021/01/07 14:47:53;;;;;;;;;;;4.70;99.90;;;;;;10402178;28;19933;-69
2021/01/07 14:53:05;;;;;;;;;;;4.60;99.90;;;;;;10400000;28;19964;-69
2021/01/07 14:58:06;;;;;;;;;;;4.60;99.90;;;;;;10380169;28;20043;-69
2021/01/07 15:03:19;;;;;;;;;;;4.70;99.90;;;;;;10391520;28;20452;-69
2021/01/07 15:08:27;;;;;;;;;;;4.60;99.90;;;;;;10400779;28;19929;-69
2021/01/07 15:13:33;;;;;;;;;;;4.50;99.90;;;;;;10401586;28;19964;-69
2021/01/07 15:18:37;;;;;;;;;;;4.50;99.90;;;;;;10400158;28;20043;-68
2021/01/07 15:24:02;;;;;;;;;;;4.40;99.90;;;;;;10399568;28;20481;-69
2021/01/07 15:29:08;;;;;;;;;;;4.40;99.90;;;;;;10396175;28;19925;-68
2021/01/07 15:34:25;;;;;;;;;;;4.30;99.90;;;;;;10402224;28;20496;-69
2021/01/07 15:39:35;;;;;;;;;;;4.40;99.90;;;;;;10402237;28;20331;-69
2021/01/07 15:44:45;;;;;;;;;;;4.30;99.90;;;;;;10392730;28;19969;-69
2021/01/07 15:49:54;;;;;;;;;;;4.10;99.90;;;;;;10408841;28;19925;-69
2021/01/07 15:55:12;;;;;;;;;;;4.10;99.90;;;;;;10409502;28;19931;-69
2021/01/07 16:00:16;;;;;;;;;;;4.20;99.90;;;;;;10410046;28;20019;-69
2021/01/07 16:05:20;;;;;;;;;;;4.20;99.90;;;;;;10408963;28;20016;-69
2021/01/07 16:10:22;;;;;;;;;;;4.20;99.90;;;;;;10396714;28;19925;-69
2021/01/07 16:15:23;;;;;;;;;;;4.30;99.90;;;;;;10406501;28;19925;-69
2021/01/07 16:20:25;;;;;;;;;;;4.20;99.90;;;;;;10406534;28;20340;-68
2021/01/07 16:25:42;;;;;;;;;;;4.20;99.90;;;;;;10408797;28;20312;-69
2021/01/07 16:30:44;;;;;;;;;;;4.20;99.90;;;;;;10407582;28;19979;-69
2021/01/07 16:35:45;;;;;;;;;;;4.10;99.90;;;;;;10410239;28;20437;-69
2021/01/07 16:40:47;;;;;;;;;;;4.10;99.90;;;;;;10408151;28;20083;-69
2021/01/07 16:45:50;;;;;;;;;;;4.20;99.90;;;;;;10408303;28;19925;-68
2021/01/07 16:50:51;;;;;;;;;;;4.10;99.90;;;;;;10407731;28;20451;-68
2021/01/07 16:55:52;;;;;;;;;;;4.00;99.90;;;;;;10405533;28;20009;-69
2021/01/07 17:00:54;;;;;;;;;;;3.80;99.90;;;;;;10405216;28;20015;-69
2021/01/07 17:05:55;;;;;;;;;;;4.00;99.90;;;;;;10407081;28;20403;-68
2021/01/07 17:10:56;;;;;;;;;;;4.20;99.90;;;;;;10406771;28;19987;-69
2021/01/07 17:15:58;;;;;;;;;;;4.30;99.90;;;;;;10405136;28;19959;-69
2021/01/07 17:20:59;;;;;;;;;;;4.30;99.90;;;;;;10404109;28;20011;-68
2021/01/07 17:26:00;;;;;;;;;;;4.40;99.90;;;;;;10406753;28;19964;-67
2021/01/07 17:31:02;;;;;;;;;;;4.10;99.90;;;;;;10405098;28;19925;-67
2021/01/07 17:36:03;;;;;;;;;;;4.00;99.90;;;;;;10437473;28;19933;-67
2021/01/07 17:41:05;;;;;;;;;;;3.90;99.90;;;;;;10405337;28;20014;-67
2021/01/07 17:46:06;;;;;;;;;;;3.80;99.90;;;;;;10428467;28;19965;-67
2021/01/07 17:51:08;;;;;;;;;;;3.70;99.90;;;;;;10404655;28;19932;-67
2021/01/07 17:56:19;;;;;;;;;;;3.70;99.90;;;;;;10401835;28;20397;-67
2021/01/07 18:01:27;;;;;;;;;;;3.70;99.90;;;;;;10404631;28;20020;-67
2021/01/07 18:06:36;;;;;;;;;;;3.70;99.90;;;;;;10409491;28;20020;-67
2021/01/07 18:11:38;;;;;;;;;;;3.60;99.90;;;;;;10402121;28;20438;-67
2021/01/07 18:16:39;;;;;;;;;;;3.70;99.90;;;;;;10404175;28;20433;-67
2021/01/07 18:21:41;;;;;;;;;;;3.70;99.90;;;;;;10401701;28;20187;-67
2021/01/07 18:26:42;;;;;;;;;;;3.70;99.90;;;;;;10403472;28;20067;-67
2021/01/07 18:31:44;;;;;;;;;;;3.60;99.90;;;;;;10403363;28;19925;-67
2021/01/07 18:36:46;;;;;;;;;;;3.60;99.90;;;;;;10403848;28;19929;-67
2021/01/07 18:41:47;;;;;;;;;;;3.60;99.90;;;;;;10403742;28;19933;-67
2021/01/07 18:46:51;;;;;;;;;;;3.60;99.90;;;;;;10402669;28;19929;-67
2021/01/07 18:51:53;;;;;;;;;;;3.50;99.90;;;;;;10403863;28;19936;-67
2021/01/07 18:56:54;;;;;;;;;;;3.60;99.90;;;;;;10403943;28;19972;-67
2021/01/07 19:01:56;;;;;;;;;;;3.60;99.90;;;;;;10403917;28;20385;-67
2021/01/07 19:06:57;;;;;;;;;;;3.60;99.90;;;;;;10403063;28;19969;-67
2021/01/07 19:11:58;;;;;;;;;;;3.80;99.90;;;;;;10402678;28;20384;-67
2021/01/07 19:17:00;;;;;;;;;;;3.70;99.90;;;;;;10403632;28;19925;-67
2021/01/07 19:22:04;;;;;;;;;;;3.50;99.90;;;;;;10407100;28;20097;-67
2021/01/07 19:27:05;;;;;;;;;;;3.50;99.90;;;;;;10410514;28;20300;-67
2021/01/07 19:32:08;;;;;;;;;;;3.50;99.90;;;;;;10410214;28;20007;-67
2021/01/07 19:37:10;;;;;;;;;;;3.40;99.90;;;;;;10409689;28;19932;-67
2021/01/07 19:42:13;;;;;;;;;;;3.40;99.90;;;;;;10410218;28;19975;-67
2021/01/07 19:47:15;;;;;;;;;;;3.40;99.90;;;;;;10409303;28;20369;-67
2021/01/07 19:52:16;;;;;;;;;;;3.40;99.90;;;;;;10409583;28;20348;-67
2021/01/07 19:57:18;;;;;;;;;;;3.50;99.90;;;;;;10409386;28;20445;-67
2021/01/07 20:02:19;;;;;;;;;;;3.40;99.90;;;;;;10409651;28;19960;-67
2021/01/07 20:07:20;;;;;;;;;;;3.40;99.90;;;;;;10408406;28;20393;-67
2021/01/07 20:12:22;;;;;;;;;;;3.40;99.90;;;;;;10408930;28;19965;-67
2021/01/07 20:17:23;;;;;;;;;;;3.40;99.90;;;;;;10408897;28;20024;-67
2021/01/07 20:22:24;;;;;;;;;;;3.40;99.90;;;;;;10408293;28;20328;-67
2021/01/07 20:27:26;;;;;;;;;;;3.40;99.90;;;;;;10407557;28;19999;-67
2021/01/07 20:32:27;;;;;;;;;;;3.40;99.90;;;;;;10405902;28;19969;-67
2021/01/07 20:37:29;;;;;;;;;;;3.50;99.90;;;;;;10406079;28;20714;-67
2021/01/07 20:42:31;;;;;;;;;;;3.50;99.90;;;;;;10406214;28;19925;-67
2021/01/07 20:47:32;;;;;;;;;;;3.40;99.90;;;;;;10405950;28;20419;-67
2021/01/07 20:52:38;;;;;;;;;;;3.50;99.90;;;;;;10407935;28;19965;-67
2021/01/07 20:57:57;;;;;;;;;;;3.50;99.90;;;;;;10407993;28;19926;-67
2021/01/07 21:03:15;;;;;;;;;;;3.40;99.90;;;;;;10407293;28;20415;-67
2021/01/07 21:08:16;;;;;;;;;;;3.30;99.90;;;;;;10407575;28;19933;-67
2021/01/07 21:13:18;;;;;;;;;;;3.40;99.90;;;;;;10406932;28;19964;-67
2021/01/07 21:18:19;;;;;;;;;;;3.40;99.90;;;;;;10406693;28;20016;-67
2021/01/07 21:23:20;;;;;;;;;;;3.30;99.90;;;;;;10406303;28;20007;-67
2021/01/07 21:28:38;;;;;;;;;;;3.40;99.90;;;;;;10405969;28;19925;-67
2021/01/07 21:33:39;;;;;;;;;;;3.30;99.90;;;;;;10406338;28;19968;-67
2021/01/07 21:38:41;;;;;;;;;;;3.30;99.90;;;;;;10405946;28;20024;-67
2021/01/07 21:43:43;;;;;;;;;;;3.30;99.90;;;;;;10404860;28;20337;-67
2021/01/07 21:48:44;;;;;;;;;;;3.40;99.90;;;;;;10405657;28;19964;-67
2021/01/07 21:53:45;;;;;;;;;;;3.30;99.90;;;;;;10405660;28;20019;-67
2021/01/07 21:58:46;;;;;;;;;;;3.30;99.90;;;;;;10405256;28;20016;-67
2021/01/07 22:03:48;;;;;;;;;;;3.30;99.90;;;;;;10405937;28;20341;-67
2021/01/07 22:08:49;;;;;;;;;;;3.30;99.90;;;;;;10405168;28;20099;-67
2021/01/07 22:13:51;;;;;;;;;;;3.30;99.90;;;;;;10404566;28;20020;-67
2021/01/07 22:18:52;;;;;;;;;;;3.40;99.90;;;;;;10403733;28;20340;-67
2021/01/07 22:23:57;;;;;;;;;;;3.40;99.90;;;;;;10404981;28;19941;-67
2021/01/07 22:29:01;;;;;;;;;;;3.40;99.90;;;;;;10404468;28;19933;-67
2021/01/07 22:34:02;;;;;;;;;;;3.30;99.90;;;;;;10403697;28;20033;-67
2021/01/07 22:39:05;;;;;;;;;;;3.30;99.90;;;;;;10404929;28;19929;-67
2021/01/07 22:44:13;;;;;;;;;;;3.40;99.90;;;;;;10417328;28;20581;-67
2021/01/07 22:49:14;;;;;;;;;;;3.30;99.90;;;;;;10403202;28;19965;-67
2021/01/07 22:54:15;;;;;;;;;;;3.20;99.90;;;;;;10404942;28;20011;-67
2021/01/07 22:59:17;;;;;;;;;;;3.30;99.90;;;;;;10417074;28;20043;-67
2021/01/07 23:04:18;;;;;;;;;;;3.30;99.90;;;;;;10417259;28;20023;-67
2021/01/07 23:09:19;;;;;;;;;;;3.30;99.90;;;;;;10417187;28;20004;-67
2021/01/07 23:14:21;;;;;;;;;;;3.30;99.90;;;;;;10416529;28;20016;-67
2021/01/07 23:19:22;;;;;;;;;;;3.30;99.90;;;;;;10416752;28;19925;-67
2021/01/07 23:24:23;;;;;;;;;;;3.30;99.90;;;;;;10416695;28;20019;-67
2021/01/07 23:29:24;;;;;;;;;;;3.30;99.90;;;;;;10412043;28;19929;-67
2021/01/07 23:34:26;;;;;;;;;;;3.30;99.90;;;;;;10416384;28;20052;-67
2021/01/07 23:39:27;;;;;;;;;;;3.30;99.90;;;;;;10417089;28;19948;-67
2021/01/07 23:44:28;;;;;;;;;;;3.20;99.90;;;;;;10416367;28;20433;-67
2021/01/07 23:49:29;;;;;;;;;;;3.10;99.90;;;;;;10415204;28;19971;-67
2021/01/07 23:54:32;;;;;;;;;;;3.20;99.90;;;;;;10416163;28;19972;-67
2021/01/07 23:59:34;;;;;;;;;;;3.30;99.90;;;;;;10416264;28;20020;-67
